sensor_id;sensor_type;location;lat;lon;timestamp;P1;durP1;ratioP1;P2;durP2;ratioP2
49340;SDS011;35209;51.050;13.678;2023-04-06T00:02:04;5.65;;;5.05;;
49340;SDS011;35209;51.050;13.678;2023-04-06T00:07:06;7.28;;;5.53;;
49340;SDS011;35209;51.050;13.678;2023-04-06T00:12:08;5.60;;;5.10;;
49340;SDS011;35209;51.050;13.678;2023-04-06T00:17:10;6.75;;;5.85;;
49340;SDS011;35209;51.050;13.678;2023-04-06T00:22:12;7.53;;;5.90;;
49340;SDS011;35209;51.050;13.678;2023-04-06T00:27:14;6.45;;;5.30;;
49340;SDS011;35209;51.050;13.678;2023-04-06T00:32:16;8.77;;;6.25;;
49340;SDS011;35209;51.050;13.678;2023-04-06T00:37:18;7.43;;;6.63;;
49340;SDS011;35209;51.050;13.678;2023-04-06T00:42:21;6.43;;;5.75;;
49340;SDS011;35209;51.050;13.678;2023-04-06T00:47:27;5.73;;;5.13;;
49340;SDS011;35209;51.050;13.678;2023-04-06T00:52:30;6.20;;;5.60;;
49340;SDS011;35209;51.050;13.678;2023-04-06T00:57:32;10.50;;;5.68;;
49340;SDS011;35209;51.050;13.678;2023-04-06T01:02:34;5.60;;;5.10;;
49340;SDS011;35209;51.050;13.678;2023-04-06T01:07:36;5.13;;;4.50;;
49340;SDS011;35209;51.050;13.678;2023-04-06T01:12:49;6.70;;;4.75;;
49340;SDS011;35209;51.050;13.678;2023-04-06T01:18:01;4.60;;;4.15;;
49340;SDS011;35209;51.050;13.678;2023-04-06T01:23:04;4.35;;;3.92;;
49340;SDS011;35209;51.050;13.678;2023-04-06T01:28:07;5.38;;;3.95;;
49340;SDS011;35209;51.050;13.678;2023-04-06T01:33:27;5.65;;;4.07;;
49340;SDS011;35209;51.050;13.678;2023-04-06T01:38:34;5.63;;;4.13;;
49340;SDS011;35209;51.050;13.678;2023-04-06T01:43:37;4.20;;;3.75;;
49340;SDS011;35209;51.050;13.678;2023-04-06T01:48:42;5.18;;;3.83;;
49340;SDS011;35209;51.050;13.678;2023-04-06T01:54:13;4.20;;;3.80;;
49340;SDS011;35209;51.050;13.678;2023-04-06T02:05:13;5.00;;;3.72;;
49340;SDS011;35209;51.050;13.678;2023-04-06T02:10:17;7.40;;;4.65;;
49340;SDS011;35209;51.050;13.678;2023-04-06T02:15:19;4.90;;;4.13;;
49340;SDS011;35209;51.050;13.678;2023-04-06T02:20:21;4.03;;;3.67;;
49340;SDS011;35209;51.050;13.678;2023-04-06T02:25:24;4.57;;;3.47;;
49340;SDS011;35209;51.050;13.678;2023-04-06T02:30:25;4.50;;;3.58;;
49340;SDS011;35209;51.050;13.678;2023-04-06T02:35:28;3.85;;;3.42;;
49340;SDS011;35209;51.050;13.678;2023-04-06T02:40:31;3.45;;;3.10;;
49340;SDS011;35209;51.050;13.678;2023-04-06T02:45:45;4.60;;;3.60;;
49340;SDS011;35209;51.050;13.678;2023-04-06T02:50:48;4.78;;;3.45;;
49340;SDS011;35209;51.050;13.678;2023-04-06T02:55:50;5.10;;;3.15;;
49340;SDS011;35209;51.050;13.678;2023-04-06T03:00:51;5.40;;;3.08;;
49340;SDS011;35209;51.050;13.678;2023-04-06T03:05:53;4.20;;;3.33;;
49340;SDS011;35209;51.050;13.678;2023-04-06T03:11:01;4.88;;;3.95;;
49340;SDS011;35209;51.050;13.678;2023-04-06T03:16:10;7.70;;;3.83;;
49340;SDS011;35209;51.050;13.678;2023-04-06T03:21:13;3.90;;;3.03;;
49340;SDS011;35209;51.050;13.678;2023-04-06T03:26:22;6.18;;;3.30;;
49340;SDS011;35209;51.050;13.678;2023-04-06T03:31:26;4.78;;;3.33;;
49340;SDS011;35209;51.050;13.678;2023-04-06T03:36:34;5.32;;;3.95;;
49340;SDS011;35209;51.050;13.678;2023-04-06T03:41:37;5.60;;;4.57;;
49340;SDS011;35209;51.050;13.678;2023-04-06T03:46:51;6.97;;;5.18;;
49340;SDS011;35209;51.050;13.678;2023-04-06T03:51:53;6.45;;;5.35;;
49340;SDS011;35209;51.050;13.678;2023-04-06T03:56:55;6.55;;;5.40;;
49340;SDS011;35209;51.050;13.678;2023-04-06T04:02:00;7.60;;;5.10;;
49340;SDS011;35209;51.050;13.678;2023-04-06T04:07:03;7.15;;;5.43;;
49340;SDS011;35209;51.050;13.678;2023-04-06T04:12:05;6.30;;;5.70;;
49340;SDS011;35209;51.050;13.678;2023-04-06T04:17:07;6.47;;;5.22;;
49340;SDS011;35209;51.050;13.678;2023-04-06T04:22:09;7.07;;;5.50;;
49340;SDS011;35209;51.050;13.678;2023-04-06T04:27:14;6.20;;;5.07;;
49340;SDS011;35209;51.050;13.678;2023-04-06T04:32:16;5.93;;;5.38;;
49340;SDS011;35209;51.050;13.678;2023-04-06T04:37:20;10.05;;;5.07;;
49340;SDS011;35209;51.050;13.678;2023-04-06T04:42:26;7.20;;;5.38;;
49340;SDS011;35209;51.050;13.678;2023-04-06T04:47:32;8.73;;;5.30;;
49340;SDS011;35209;51.050;13.678;2023-04-06T04:52:34;8.35;;;6.43;;
49340;SDS011;35209;51.050;13.678;2023-04-06T04:57:56;6.57;;;5.38;;
49340;SDS011;35209;51.050;13.678;2023-04-06T05:03:18;9.00;;;5.68;;
49340;SDS011;35209;51.050;13.678;2023-04-06T05:08:31;5.32;;;4.80;;
49340;SDS011;35209;51.050;13.678;2023-04-06T05:13:34;12.48;;;6.47;;
49340;SDS011;35209;51.050;13.678;2023-04-06T05:18:43;7.03;;;5.50;;
49340;SDS011;35209;51.050;13.678;2023-04-06T05:23:45;9.15;;;5.60;;
49340;SDS011;35209;51.050;13.678;2023-04-06T05:28:47;7.53;;;6.75;;
49340;SDS011;35209;51.050;13.678;2023-04-06T05:33:50;7.68;;;6.15;;
49340;SDS011;35209;51.050;13.678;2023-04-06T05:39:03;7.60;;;5.70;;
49340;SDS011;35209;51.050;13.678;2023-04-06T05:44:14;6.47;;;5.60;;
49340;SDS011;35209;51.050;13.678;2023-04-06T05:49:21;8.50;;;5.63;;
49340;SDS011;35209;51.050;13.678;2023-04-06T05:54:23;5.47;;;4.97;;
49340;SDS011;35209;51.050;13.678;2023-04-06T05:59:30;6.53;;;4.82;;
49340;SDS011;35209;51.050;13.678;2023-04-06T06:04:33;6.60;;;5.50;;
49340;SDS011;35209;51.050;13.678;2023-04-06T06:09:36;5.38;;;4.57;;
49340;SDS011;35209;51.050;13.678;2023-04-06T06:14:50;7.75;;;4.22;;
49340;SDS011;35209;51.050;13.678;2023-04-06T06:19:53;7.05;;;4.25;;
49340;SDS011;35209;51.050;13.678;2023-04-06T06:24:56;5.30;;;4.13;;
49340;SDS011;35209;51.050;13.678;2023-04-06T06:29:58;10.32;;;4.18;;
49340;SDS011;35209;51.050;13.678;2023-04-06T06:35:04;5.65;;;4.32;;
49340;SDS011;35209;51.050;13.678;2023-04-06T06:40:08;4.82;;;4.32;;
49340;SDS011;35209;51.050;13.678;2023-04-06T06:45:11;4.95;;;4.32;;
49340;SDS011;35209;51.050;13.678;2023-04-06T06:50:13;5.35;;;4.55;;
49340;SDS011;35209;51.050;13.678;2023-04-06T06:55:16;6.28;;;5.35;;
49340;SDS011;35209;51.050;13.678;2023-04-06T07:00:20;5.13;;;4.25;;
49340;SDS011;35209;51.050;13.678;2023-04-06T07:05:23;5.78;;;4.45;;
49340;SDS011;35209;51.050;13.678;2023-04-06T07:10:31;7.05;;;5.30;;
49340;SDS011;35209;51.050;13.678;2023-04-06T07:15:33;5.72;;;4.53;;
49340;SDS011;35209;51.050;13.678;2023-04-06T07:20:35;5.80;;;4.15;;
49340;SDS011;35209;51.050;13.678;2023-04-06T07:25:37;7.68;;;4.47;;
49340;SDS011;35209;51.050;13.678;2023-04-06T07:30:40;6.90;;;4.82;;
49340;SDS011;35209;51.050;13.678;2023-04-06T07:35:44;5.57;;;5.07;;
49340;SDS011;35209;51.050;13.678;2023-04-06T07:40:47;9.60;;;5.13;;
49340;SDS011;35209;51.050;13.678;2023-04-06T07:45:49;5.75;;;5.10;;
49340;SDS011;35209;51.050;13.678;2023-04-06T07:50:51;7.88;;;4.68;;
49340;SDS011;35209;51.050;13.678;2023-04-06T07:56:05;5.35;;;4.80;;
49340;SDS011;35209;51.050;13.678;2023-04-06T08:01:07;5.22;;;4.78;;
49340;SDS011;35209;51.050;13.678;2023-04-06T08:06:08;5.38;;;4.60;;
49340;SDS011;35209;51.050;13.678;2023-04-06T08:11:10;6.85;;;4.50;;
49340;SDS011;35209;51.050;13.678;2023-04-06T08:16:12;7.43;;;5.38;;
49340;SDS011;35209;51.050;13.678;2023-04-06T08:21:17;4.97;;;4.47;;
49340;SDS011;35209;51.050;13.678;2023-04-06T08:26:19;4.60;;;4.15;;
49340;SDS011;35209;51.050;13.678;2023-04-06T08:31:22;4.97;;;4.57;;
49340;SDS011;35209;51.050;13.678;2023-04-06T08:36:24;5.35;;;4.40;;
49340;SDS011;35209;51.050;13.678;2023-04-06T08:41:27;4.50;;;3.90;;
49340;SDS011;35209;51.050;13.678;2023-04-06T08:46:29;4.63;;;3.75;;
49340;SDS011;35209;51.050;13.678;2023-04-06T08:51:32;3.97;;;3.53;;
49340;SDS011;35209;51.050;13.678;2023-04-06T08:56:36;3.58;;;3.10;;
49340;SDS011;35209;51.050;13.678;2023-04-06T09:01:39;4.30;;;3.33;;
49340;SDS011;35209;51.050;13.678;2023-04-06T09:06:45;4.43;;;2.80;;
49340;SDS011;35209;51.050;13.678;2023-04-06T09:11:50;4.47;;;3.80;;
49340;SDS011;35209;51.050;13.678;2023-04-06T09:16:53;3.50;;;2.97;;
49340;SDS011;35209;51.050;13.678;2023-04-06T09:22:04;4.22;;;3.83;;
49340;SDS011;35209;51.050;13.678;2023-04-06T09:27:09;4.13;;;3.03;;
49340;SDS011;35209;51.050;13.678;2023-04-06T09:32:11;4.43;;;3.17;;
49340;SDS011;35209;51.050;13.678;2023-04-06T09:37:16;5.35;;;2.88;;
49340;SDS011;35209;51.050;13.678;2023-04-06T09:42:23;3.37;;;2.23;;
49340;SDS011;35209;51.050;13.678;2023-04-06T09:47:27;2.40;;;2.20;;
49340;SDS011;35209;51.050;13.678;2023-04-06T09:52:33;3.03;;;2.58;;
49340;SDS011;35209;51.050;13.678;2023-04-06T09:58:01;2.55;;;2.33;;
49340;SDS011;35209;51.050;13.678;2023-04-06T10:03:27;2.58;;;1.92;;
49340;SDS011;35209;51.050;13.678;2023-04-06T10:08:32;5.18;;;2.10;;
49340;SDS011;35209;51.050;13.678;2023-04-06T10:13:36;3.22;;;2.80;;
49340;SDS011;35209;51.050;13.678;2023-04-06T10:18:38;4.15;;;2.38;;
49340;SDS011;35209;51.050;13.678;2023-04-06T10:29:05;3.08;;;2.60;;
49340;SDS011;35209;51.050;13.678;2023-04-06T10:34:07;2.58;;;2.10;;
49340;SDS011;35209;51.050;13.678;2023-04-06T10:39:10;4.72;;;2.55;;
49340;SDS011;35209;51.050;13.678;2023-04-06T10:44:21;2.38;;;2.17;;
49340;SDS011;35209;51.050;13.678;2023-04-06T10:49:27;2.53;;;2.10;;
49340;SDS011;35209;51.050;13.678;2023-04-06T10:54:29;3.03;;;2.05;;
49340;SDS011;35209;51.050;13.678;2023-04-06T10:59:33;2.80;;;2.47;;
49340;SDS011;35209;51.050;13.678;2023-04-06T11:04:35;2.45;;;2.15;;
49340;SDS011;35209;51.050;13.678;2023-04-06T11:09:37;3.22;;;2.60;;
49340;SDS011;35209;51.050;13.678;2023-04-06T11:14:40;4.47;;;2.50;;
49340;SDS011;35209;51.050;13.678;2023-04-06T11:19:43;2.92;;;2.10;;
49340;SDS011;35209;51.050;13.678;2023-04-06T11:24:45;2.72;;;2.15;;
49340;SDS011;35209;51.050;13.678;2023-04-06T11:29:46;3.55;;;2.40;;
49340;SDS011;35209;51.050;13.678;2023-04-06T11:34:49;3.05;;;2.60;;
49340;SDS011;35209;51.050;13.678;2023-04-06T11:39:51;3.05;;;2.63;;
49340;SDS011;35209;51.050;13.678;2023-04-06T11:44:56;2.95;;;2.28;;
49340;SDS011;35209;51.050;13.678;2023-04-06T11:50:09;2.67;;;2.42;;
49340;SDS011;35209;51.050;13.678;2023-04-06T11:55:13;2.60;;;2.08;;
49340;SDS011;35209;51.050;13.678;2023-04-06T12:00:20;2.50;;;2.30;;
49340;SDS011;35209;51.050;13.678;2023-04-06T12:05:23;3.90;;;3.03;;
49340;SDS011;35209;51.050;13.678;2023-04-06T12:10:26;4.22;;;2.92;;
49340;SDS011;35209;51.050;13.678;2023-04-06T12:15:28;3.80;;;3.00;;
49340;SDS011;35209;51.050;13.678;2023-04-06T12:20:30;4.10;;;2.47;;
49340;SDS011;35209;51.050;13.678;2023-04-06T12:25:32;4.22;;;2.55;;
49340;SDS011;35209;51.050;13.678;2023-04-06T12:30:35;3.38;;;2.22;;
49340;SDS011;35209;51.050;13.678;2023-04-06T12:35:37;3.80;;;3.00;;
49340;SDS011;35209;51.050;13.678;2023-04-06T12:40:40;3.35;;;2.55;;
49340;SDS011;35209;51.050;13.678;2023-04-06T12:45:42;3.78;;;2.60;;
49340;SDS011;35209;51.050;13.678;2023-04-06T12:50:44;4.65;;;2.67;;
49340;SDS011;35209;51.050;13.678;2023-04-06T12:55:46;3.33;;;2.65;;
49340;SDS011;35209;51.050;13.678;2023-04-06T13:00:48;3.47;;;2.80;;
49340;SDS011;35209;51.050;13.678;2023-04-06T13:05:51;3.08;;;2.67;;
49340;SDS011;35209;51.050;13.678;2023-04-06T13:10:53;8.82;;;6.10;;
49340;SDS011;35209;51.050;13.678;2023-04-06T13:16:08;3.25;;;2.92;;
49340;SDS011;35209;51.050;13.678;2023-04-06T13:21:13;3.65;;;3.03;;
49340;SDS011;35209;51.050;13.678;2023-04-06T13:31:19;3.75;;;2.90;;
49340;SDS011;35209;51.050;13.678;2023-04-06T13:36:21;4.45;;;3.13;;
49340;SDS011;35209;51.050;13.678;2023-04-06T13:41:24;4.03;;;2.72;;
49340;SDS011;35209;51.050;13.678;2023-04-06T13:46:27;4.57;;;2.88;;
49340;SDS011;35209;51.050;13.678;2023-04-06T13:51:29;3.63;;;3.28;;
49340;SDS011;35209;51.050;13.678;2023-04-06T13:56:32;3.40;;;3.10;;
49340;SDS011;35209;51.050;13.678;2023-04-06T14:01:34;3.58;;;2.47;;
49340;SDS011;35209;51.050;13.678;2023-04-06T14:06:36;5.22;;;2.90;;
49340;SDS011;35209;51.050;13.678;2023-04-06T14:11:38;6.53;;;2.83;;
49340;SDS011;35209;51.050;13.678;2023-04-06T14:16:40;3.35;;;2.65;;
49340;SDS011;35209;51.050;13.678;2023-04-06T14:21:45;4.40;;;2.53;;
49340;SDS011;35209;51.050;13.678;2023-04-06T14:26:47;4.00;;;3.60;;
49340;SDS011;35209;51.050;13.678;2023-04-06T14:31:48;3.22;;;2.92;;
49340;SDS011;35209;51.050;13.678;2023-04-06T14:36:50;3.63;;;2.80;;
49340;SDS011;35209;51.050;13.678;2023-04-06T14:41:52;3.45;;;3.20;;
49340;SDS011;35209;51.050;13.678;2023-04-06T14:46:54;2.60;;;2.40;;
49340;SDS011;35209;51.050;13.678;2023-04-06T14:51:56;3.40;;;3.10;;
49340;SDS011;35209;51.050;13.678;2023-04-06T14:56:58;6.32;;;2.65;;
49340;SDS011;35209;51.050;13.678;2023-04-06T15:02:00;3.67;;;2.85;;
49340;SDS011;35209;51.050;13.678;2023-04-06T15:07:04;2.95;;;2.67;;
49340;SDS011;35209;51.050;13.678;2023-04-06T15:12:06;3.42;;;3.08;;
49340;SDS011;35209;51.050;13.678;2023-04-06T15:17:08;3.83;;;2.63;;
49340;SDS011;35209;51.050;13.678;2023-04-06T15:22:09;2.75;;;2.22;;
49340;SDS011;35209;51.050;13.678;2023-04-06T15:27:12;2.95;;;2.15;;
49340;SDS011;35209;51.050;13.678;2023-04-06T15:32:14;3.03;;;2.72;;
49340;SDS011;35209;51.050;13.678;2023-04-06T15:37:19;2.88;;;2.58;;
49340;SDS011;35209;51.050;13.678;2023-04-06T15:42:21;3.45;;;2.88;;
49340;SDS011;35209;51.050;13.678;2023-04-06T15:47:23;3.17;;;2.45;;
49340;SDS011;35209;51.050;13.678;2023-04-06T15:52:25;2.55;;;2.33;;
49340;SDS011;35209;51.050;13.678;2023-04-06T15:57:27;4.18;;;2.22;;
49340;SDS011;35209;51.050;13.678;2023-04-06T16:02:29;11.35;;;2.67;;
49340;SDS011;35209;51.050;13.678;2023-04-06T16:07:31;2.50;;;2.03;;
49340;SDS011;35209;51.050;13.678;2023-04-06T16:12:34;3.08;;;2.35;;
49340;SDS011;35209;51.050;13.678;2023-04-06T16:17:36;3.05;;;2.42;;
49340;SDS011;35209;51.050;13.678;2023-04-06T16:22:38;2.58;;;2.30;;
49340;SDS011;35209;51.050;13.678;2023-04-06T16:27:40;2.90;;;2.28;;
49340;SDS011;35209;51.050;13.678;2023-04-06T16:32:42;3.30;;;2.95;;
49340;SDS011;35209;51.050;13.678;2023-04-06T16:37:45;3.17;;;2.20;;
49340;SDS011;35209;51.050;13.678;2023-04-06T16:42:46;2.63;;;2.38;;
49340;SDS011;35209;51.050;13.678;2023-04-06T16:47:48;2.72;;;2.10;;
49340;SDS011;35209;51.050;13.678;2023-04-06T16:52:51;3.13;;;2.92;;
49340;SDS011;35209;51.050;13.678;2023-04-06T16:57:54;2.53;;;2.28;;
49340;SDS011;35209;51.050;13.678;2023-04-06T17:02:59;2.95;;;2.10;;
49340;SDS011;35209;51.050;13.678;2023-04-06T17:08:01;3.97;;;2.58;;
49340;SDS011;35209;51.050;13.678;2023-04-06T17:13:03;2.65;;;2.45;;
49340;SDS011;35209;51.050;13.678;2023-04-06T17:18:06;2.42;;;2.22;;
49340;SDS011;35209;51.050;13.678;2023-04-06T17:23:08;6.22;;;2.40;;
49340;SDS011;35209;51.050;13.678;2023-04-06T17:28:10;4.90;;;2.75;;
49340;SDS011;35209;51.050;13.678;2023-04-06T17:33:12;2.95;;;2.60;;
49340;SDS011;35209;51.050;13.678;2023-04-06T17:38:14;3.08;;;2.28;;
49340;SDS011;35209;51.050;13.678;2023-04-06T17:43:15;3.65;;;2.42;;
49340;SDS011;35209;51.050;13.678;2023-04-06T17:48:18;6.78;;;2.78;;
49340;SDS011;35209;51.050;13.678;2023-04-06T17:53:20;3.58;;;3.10;;
49340;SDS011;35209;51.050;13.678;2023-04-06T17:58:22;3.85;;;3.42;;
49340;SDS011;35209;51.050;13.678;2023-04-06T18:03:24;3.70;;;2.97;;
49340;SDS011;35209;51.050;13.678;2023-04-06T18:08:25;4.50;;;4.05;;
49340;SDS011;35209;51.050;13.678;2023-04-06T18:13:27;4.32;;;3.60;;
49340;SDS011;35209;51.050;13.678;2023-04-06T18:18:29;4.35;;;3.95;;
49340;SDS011;35209;51.050;13.678;2023-04-06T18:23:31;3.35;;;2.80;;
49340;SDS011;35209;51.050;13.678;2023-04-06T18:28:34;7.45;;;5.07;;
49340;SDS011;35209;51.050;13.678;2023-04-06T18:33:36;5.00;;;4.55;;
49340;SDS011;35209;51.050;13.678;2023-04-06T18:38:41;3.53;;;3.22;;
49340;SDS011;35209;51.050;13.678;2023-04-06T18:43:48;2.97;;;2.67;;
49340;SDS011;35209;51.050;13.678;2023-04-06T18:48:49;2.72;;;2.42;;
49340;SDS011;35209;51.050;13.678;2023-04-06T18:53:51;3.15;;;2.30;;
49340;SDS011;35209;51.050;13.678;2023-04-06T18:58:53;3.13;;;2.78;;
49340;SDS011;35209;51.050;13.678;2023-04-06T19:03:56;5.00;;;2.85;;
49340;SDS011;35209;51.050;13.678;2023-04-06T19:08:59;2.95;;;2.65;;
49340;SDS011;35209;51.050;13.678;2023-04-06T19:14:01;4.82;;;3.28;;
49340;SDS011;35209;51.050;13.678;2023-04-06T19:19:03;3.88;;;3.25;;
49340;SDS011;35209;51.050;13.678;2023-04-06T19:24:05;4.07;;;3.70;;
49340;SDS011;35209;51.050;13.678;2023-04-06T19:29:08;5.82;;;5.32;;
49340;SDS011;35209;51.050;13.678;2023-04-06T19:34:10;6.32;;;5.70;;
49340;SDS011;35209;51.050;13.678;2023-04-06T19:39:17;7.22;;;5.63;;
49340;SDS011;35209;51.050;13.678;2023-04-06T19:44:19;22.38;;;12.23;;
49340;SDS011;35209;51.050;13.678;2023-04-06T19:49:21;18.25;;;13.25;;
49340;SDS011;35209;51.050;13.678;2023-04-06T19:54:23;14.00;;;11.40;;
49340;SDS011;35209;51.050;13.678;2023-04-06T19:59:25;18.70;;;12.38;;
49340;SDS011;35209;51.050;13.678;2023-04-06T20:04:27;13.68;;;11.30;;
49340;SDS011;35209;51.050;13.678;2023-04-06T20:09:28;12.38;;;11.13;;
49340;SDS011;35209;51.050;13.678;2023-04-06T20:14:30;13.95;;;11.10;;
49340;SDS011;35209;51.050;13.678;2023-04-06T20:19:32;10.73;;;9.75;;
49340;SDS011;35209;51.050;13.678;2023-04-06T20:24:34;11.18;;;9.68;;
49340;SDS011;35209;51.050;13.678;2023-04-06T20:29:35;8.02;;;7.30;;
49340;SDS011;35209;51.050;13.678;2023-04-06T20:34:37;8.65;;;7.32;;
49340;SDS011;35209;51.050;13.678;2023-04-06T20:39:39;8.10;;;7.40;;
49340;SDS011;35209;51.050;13.678;2023-04-06T20:44:42;16.38;;;14.98;;
49340;SDS011;35209;51.050;13.678;2023-04-06T20:49:44;11.55;;;8.52;;
49340;SDS011;35209;51.050;13.678;2023-04-06T20:54:46;8.15;;;7.38;;
49340;SDS011;35209;51.050;13.678;2023-04-06T20:59:48;9.75;;;8.13;;
49340;SDS011;35209;51.050;13.678;2023-04-06T21:04:50;8.77;;;7.85;;
49340;SDS011;35209;51.050;13.678;2023-04-06T21:09:52;8.52;;;7.70;;
49340;SDS011;35209;51.050;13.678;2023-04-06T21:14:54;9.48;;;8.57;;
49340;SDS011;35209;51.050;13.678;2023-04-06T21:19:55;8.77;;;8.00;;
49340;SDS011;35209;51.050;13.678;2023-04-06T21:24:57;9.23;;;7.78;;
49340;SDS011;35209;51.050;13.678;2023-04-06T21:29:59;9.85;;;8.05;;
49340;SDS011;35209;51.050;13.678;2023-04-06T21:35:01;9.02;;;8.13;;
49340;SDS011;35209;51.050;13.678;2023-04-06T21:40:03;10.40;;;9.52;;
49340;SDS011;35209;51.050;13.678;2023-04-06T21:45:06;9.40;;;8.60;;
49340;SDS011;35209;51.050;13.678;2023-04-06T21:50:08;8.52;;;7.82;;
49340;SDS011;35209;51.050;13.678;2023-04-06T21:55:10;8.27;;;7.57;;
49340;SDS011;35209;51.050;13.678;2023-04-06T22:00:12;9.15;;;8.35;;
49340;SDS011;35209;51.050;13.678;2023-04-06T22:05:17;12.88;;;9.35;;
49340;SDS011;35209;51.050;13.678;2023-04-06T22:10:18;8.52;;;7.82;;
49340;SDS011;35209;51.050;13.678;2023-04-06T22:15:20;9.07;;;7.97;;
49340;SDS011;35209;51.050;13.678;2023-04-06T22:20:22;9.80;;;8.93;;
49340;SDS011;35209;51.050;13.678;2023-04-06T22:25:24;8.85;;;8.07;;
49340;SDS011;35209;51.050;13.678;2023-04-06T22:30:25;13.23;;;9.75;;
49340;SDS011;35209;51.050;13.678;2023-04-06T22:35:27;12.38;;;11.27;;
49340;SDS011;35209;51.050;13.678;2023-04-06T22:40:29;11.82;;;10.43;;
49340;SDS011;35209;51.050;13.678;2023-04-06T22:45:30;9.65;;;8.85;;
49340;SDS011;35209;51.050;13.678;2023-04-06T22:50:32;10.52;;;9.07;;
49340;SDS011;35209;51.050;13.678;2023-04-06T22:55:34;10.80;;;9.90;;
49340;SDS011;35209;51.050;13.678;2023-04-06T23:00:36;9.15;;;8.45;;
49340;SDS011;35209;51.050;13.678;2023-04-06T23:05:37;13.48;;;9.30;;
49340;SDS011;35209;51.050;13.678;2023-04-06T23:10:39;11.10;;;8.50;;
49340;SDS011;35209;51.050;13.678;2023-04-06T23:15:43;9.75;;;8.82;;
49340;SDS011;35209;51.050;13.678;2023-04-06T23:20:44;8.40;;;7.70;;
49340;SDS011;35209;51.050;13.678;2023-04-06T23:25:46;8.15;;;7.38;;
49340;SDS011;35209;51.050;13.678;2023-04-06T23:30:48;9.88;;;8.85;;
49340;SDS011;35209;51.050;13.678;2023-04-06T23:35:49;9.18;;;8.27;;
49340;SDS011;35209;51.050;13.678;2023-04-06T23:40:52;9.98;;;8.98;;
49340;SDS011;35209;51.050;13.678;2023-04-06T23:45:54;9.68;;;8.68;;
49340;SDS011;35209;51.050;13.678;2023-04-06T23:50:57;9.70;;;8.70;;
49340;SDS011;35209;51.050;13.678;2023-04-06T23:55:58;10.07;;;9.07;;
